Weather History for Glenwood, MN

Change the Weather History Date:

Saturday, September 7, 2013

  Actual Average Record
Temperature  
Mean Temperature 78 °F -  
Max Temperature 91 °F 76 °F 93 °F (2003)
Min Temperature 66 °F 51 °F 35 °F (1986)
Cooling Degree Days 14    
Growing Degree Days 28 (Base 50)    
Moisture  
Dew Point 68 °F    
Average Humidity 75    
Maximum Humidity 94    
Minimum Humidity 43    
Precipitation  
Precipitation 0.00 in - - ()
Sea Level Pressure  
Sea Level Pressure 29.97 in    
Wind  
Wind Speed 6 mph (NNE)    
Max Wind Speed 21 mph    
Max Gust Speed 25 mph    
Visibility 10 miles    
Events Rain , Thunderstorm    
Averages and records for this station are not official NWS values.
T = Trace of Precipitation, MM = Missing Value Source: NWS Daily Summary

Daily Weather History Graph

Daily Weather History Graph

Search for Another Location

Airport:

Trip Planner

Search our weather history database for the weather conditions in past years. The results will help you decide how hot, cold, wet, or windy it might be!

Date:

Astronomy

Sep. 07, 2013 Rise Set
Actual Time 6:50 AM CDT 7:47 PM CDT
Civil Twilight 6:19 AM CDT 8:17 PM CDT
Nautical Twilight 5:43 AM CDT 8:53 PM CDT
Astronomical Twilight 5:05 AM CDT 9:31 PM CDT
Moon 9:15 AM CDT (9/7) 8:35 PM CDT (9/7)
Length of Visible Light 13h 57m
Length of Day
12h 57m
Waxing Crescent, 5% of the Moon is Illuminated
Sep 7
Waxing Crescent
Sep 12
First Quarter
Sep 19
Full
Sep 26
Last Quarter
Oct 4
New

Hourly Weather History & Observations

Time (CDT) Temp. Heat Index Dew Point Humidity Pressure Visibility Wind Dir Wind Speed Gust Speed Precip Events Conditions
12:14 AM 69.8 °F - 68.0 °F 94% 29.90 in 10.0 mi Calm Calm - N/A   Clear
12:33 AM 69.8 °F - 66.2 °F 88% 29.91 in 10.0 mi Calm Calm - N/A   Clear
12:53 AM 69.8 °F - 66.2 °F 88% 29.91 in 10.0 mi NNW 4.6 mph - N/A   Clear
1:14 AM 71.6 °F - 68.0 °F 88% 29.91 in 10.0 mi NNW 4.6 mph - N/A   Clear
1:33 AM 71.6 °F - 66.2 °F 83% 29.91 in 10.0 mi NNW 5.8 mph - N/A   Clear
1:53 AM 71.6 °F - 66.2 °F 83% 29.91 in 10.0 mi NNW 4.6 mph - N/A   Clear
2:13 AM 71.6 °F - 66.2 °F 83% 29.91 in 10.0 mi North 5.8 mph - N/A   Clear
2:33 AM 69.8 °F - 66.2 °F 88% 29.91 in 10.0 mi North 4.6 mph - N/A   Clear
2:54 AM 69.8 °F - 66.2 °F 88% 29.91 in 10.0 mi North 6.9 mph - N/A   Clear
3:13 AM 69.8 °F - 66.2 °F 88% 29.91 in 10.0 mi North 5.8 mph - N/A   Clear
3:33 AM 69.8 °F - 66.2 °F 88% 29.91 in 10.0 mi North 5.8 mph - N/A   Clear
3:53 AM 69.8 °F - 66.2 °F 88% 29.91 in 10.0 mi North 5.8 mph - N/A   Clear
4:13 AM 69.8 °F - 66.2 °F 88% 29.91 in 10.0 mi North 4.6 mph - N/A   Clear
4:34 AM 69.8 °F - 66.2 °F 88% 29.91 in 10.0 mi NNE 5.8 mph - N/A   Clear
4:53 AM 69.8 °F - 66.2 °F 88% 29.91 in 10.0 mi NNE 3.5 mph - N/A   Clear
5:13 AM 69.8 °F - 66.2 °F 88% 29.92 in 10.0 mi Calm Calm - N/A   Clear
5:33 AM 66.2 °F - 64.4 °F 94% 29.93 in 10.0 mi NNW 5.8 mph - N/A   Clear
5:53 AM 68.0 °F - 66.2 °F 94% 29.93 in 10.0 mi North 5.8 mph - N/A   Clear
6:14 AM 68.0 °F - 66.2 °F 94% 29.94 in 10.0 mi North 6.9 mph - N/A   Clear
6:33 AM 68.0 °F - 66.2 °F 94% 29.94 in 10.0 mi North 6.9 mph - N/A   Clear
6:53 AM 68.0 °F - 66.2 °F 94% 29.95 in 10.0 mi North 5.8 mph - N/A   Clear
7:13 AM 68.0 °F - 66.2 °F 94% 29.95 in 10.0 mi North 6.9 mph - N/A   Clear
7:33 AM 69.8 °F - 66.2 °F 88% 29.96 in 10.0 mi North 5.8 mph - N/A   Clear
7:54 AM 69.8 °F - 66.2 °F 88% 29.96 in 10.0 mi North 4.6 mph - N/A   Clear
8:13 AM 71.6 °F - 68.0 °F 88% 29.96 in 10.0 mi North 3.5 mph - N/A   Clear
8:33 AM 73.4 °F - 69.8 °F 88% 29.96 in 10.0 mi North 3.5 mph - N/A   Clear
8:53 AM 75.2 °F - 69.8 °F 83% 29.97 in 10.0 mi North 5.8 mph - N/A   Clear
9:13 AM 77.0 °F - 69.8 °F 78% 29.97 in 10.0 mi North 5.8 mph - N/A   Clear
9:34 AM 78.8 °F - 69.8 °F 74% 29.97 in 10.0 mi NNE 8.1 mph - N/A   Clear
9:53 AM 80.6 °F 83.9 °F 69.8 °F 70% 29.97 in 10.0 mi NNE 9.2 mph - N/A   Clear
10:13 AM 80.6 °F 83.9 °F 69.8 °F 70% 29.99 in 10.0 mi North 9.2 mph - N/A   Clear
10:34 AM 82.4 °F 86.3 °F 69.8 °F 66% 29.99 in 10.0 mi NNE 11.5 mph - N/A   Clear
10:53 AM 84.2 °F 88.4 °F 69.8 °F 62% 29.99 in 10.0 mi NNE 10.4 mph - N/A   Clear
11:14 AM 84.2 °F 87.3 °F 68.0 °F 58% 29.99 in 10.0 mi NE 9.2 mph - N/A   Clear
11:33 AM 86.0 °F 90.4 °F 69.8 °F 58% 29.99 in 10.0 mi NNE 11.5 mph - N/A   Clear
11:53 AM 87.8 °F 92.6 °F 69.8 °F 55% 29.99 in 10.0 mi NNE 10.4 mph - N/A   Clear
12:13 PM 87.8 °F 91.4 °F 68.0 °F 52% 29.99 in 10.0 mi NNE 8.1 mph - N/A   Clear
12:33 PM 87.8 °F 91.4 °F 68.0 °F 52% 29.99 in 10.0 mi NE 10.4 mph - N/A   Clear
12:53 PM 89.6 °F 92.2 °F 66.2 °F 46% 29.99 in 10.0 mi NNE 8.1 mph - N/A   Clear
1:13 PM 89.6 °F 92.2 °F 66.2 °F 46% 29.98 in 10.0 mi North 12.7 mph - N/A   Clear
1:33 PM 89.6 °F 92.2 °F 66.2 °F 46% 29.99 in 10.0 mi NNE 9.2 mph - N/A   Clear
1:53 PM 89.6 °F 92.2 °F 66.2 °F 46% 29.99 in 10.0 mi North 11.5 mph 17.3 mph N/A   Clear
2:13 PM 87.8 °F 90.4 °F 66.2 °F 49% 29.99 in 10.0 mi NNE 11.5 mph - N/A   Clear
2:33 PM 87.8 °F 90.4 °F 66.2 °F 49% 29.99 in 10.0 mi NNE 9.2 mph - N/A   Clear
2:53 PM 89.6 °F 92.2 °F 66.2 °F 46% 29.98 in 10.0 mi North 9.2 mph - N/A   Clear
3:13 PM 89.6 °F 92.2 °F 66.2 °F 46% 29.98 in 10.0 mi North 9.2 mph - N/A   Clear
3:33 PM 89.6 °F 92.2 °F 66.2 °F 46% 29.98 in 10.0 mi NNE 4.6 mph - N/A   Clear
3:53 PM 91.4 °F 94.0 °F 66.2 °F 43% 29.98 in 10.0 mi NE 8.1 mph - N/A   Scattered Clouds
4:13 PM 91.4 °F 94.0 °F 66.2 °F 43% 29.98 in 10.0 mi North 8.1 mph - N/A   Scattered Clouds
4:33 PM 87.8 °F 90.4 °F 66.2 °F 49% 29.98 in 10.0 mi NNE 10.4 mph - N/A   Clear
4:53 PM 86.0 °F 88.2 °F 66.2 °F 51% 29.99 in 10.0 mi NE 11.5 mph - N/A   Clear
5:13 PM 89.6 °F 94.7 °F 69.8 °F 52% 29.99 in 10.0 mi NNE 20.7 mph 25.3 mph N/A   Clear
5:33 PM 80.6 °F 83.9 °F 69.8 °F 70% 30.00 in 10.0 mi North 13.8 mph 20.7 mph N/A Thunderstorm Clear
5:53 PM 75.2 °F - 71.6 °F 89% 30.00 in 7.0 mi North 6.9 mph - N/A Rain Light Rain
6:13 PM 78.8 °F - 69.8 °F 74% 30.01 in 10.0 mi North 6.9 mph - N/A   Clear
6:33 PM 80.6 °F 83.9 °F 69.8 °F 70% 30.01 in 10.0 mi NNE 8.1 mph - N/A   Clear
6:53 PM 78.8 °F - 69.8 °F 74% 30.00 in 10.0 mi NNE 6.9 mph - N/A   Clear
7:13 PM 77.0 °F - 71.6 °F 83% 30.01 in 10.0 mi NNE 8.1 mph - N/A   Clear
7:33 PM 77.0 °F - 69.8 °F 78% 30.01 in 10.0 mi NNE 8.1 mph - N/A   Clear
7:53 PM 75.2 °F - 69.8 °F 83% 30.01 in 10.0 mi NNE 6.9 mph - N/A   Clear
8:13 PM 75.2 °F - 69.8 °F 83% 30.02 in 10.0 mi NNE 6.9 mph - N/A   Clear
8:33 PM 75.2 °F - 69.8 °F 83% 30.02 in 10.0 mi NNE 8.1 mph - N/A   Clear
8:53 PM 73.4 °F - 69.8 °F 88% 30.02 in 10.0 mi NNE 8.1 mph - N/A   Clear
9:13 PM 73.4 °F - 69.8 °F 88% 30.03 in 10.0 mi NE 8.1 mph - N/A   Clear
9:33 PM 73.4 °F - 68.0 °F 83% 30.02 in 10.0 mi NE 9.2 mph - N/A   Clear
9:53 PM 73.4 °F - 66.2 °F 78% 30.03 in 10.0 mi NE 9.2 mph - N/A   Clear
10:14 PM 71.6 °F - 66.2 °F 83% 30.03 in 10.0 mi NE 9.2 mph - N/A   Clear
10:33 PM 71.6 °F - 66.2 °F 83% 30.04 in 10.0 mi NE 9.2 mph - N/A   Scattered Clouds
10:53 PM 71.6 °F - 66.2 °F 83% 30.04 in 10.0 mi NE 9.2 mph - N/A   Scattered Clouds
11:13 PM 71.6 °F - 66.2 °F 83% 30.04 in 10.0 mi ENE 10.4 mph - N/A   Clear
11:33 PM 71.6 °F - 66.2 °F 83% 30.05 in 10.0 mi ENE 10.4 mph - N/A   Clear
11:53 PM 71.6 °F - 66.2 °F 83% 30.06 in 10.0 mi East 12.7 mph 17.3 mph N/A   Clear